Time;durP1;ratioP1;P1;durP2;ratioP2;P2;SDS_P1;SDS_P2;PMS_P1;PMS_P2;Temp;Humidity;BMP_temperature;BMP_pressure;BME280_temperature;BME280_humidity;BME280_pressure;Samples;Min_cycle;Max_cycle;Signal;HPM_P1;HPM_P2
2021/08/22 00:00:36;;;;;;;6.83;6.23;;;23.20;1.00;;;;;;5067651;28;20460;-83
2021/08/22 00:03:04;;;;;;;7.27;5.30;;;23.30;1.00;;;;;;5092108;28;20469;-81
2021/08/22 00:05:33;;;;;;;6.77;6.17;;;23.30;1.00;;;;;;5087016;28;20871;-83
2021/08/22 00:08:01;;;;;;;5.53;5.13;;;23.40;1.00;;;;;;5092672;28;20489;-82
2021/08/22 00:10:29;;;;;;;9.03;6.23;;;23.40;1.00;;;;;;5092094;28;20456;-81
2021/08/22 00:12:58;;;;;;;7.03;5.53;;;23.50;1.00;;;;;;5094430;28;20464;-82
2021/08/22 00:15:26;;;;;;;6.70;6.10;;;23.50;1.00;;;;;;5090201;28;20971;-79
2021/08/22 00:17:56;;;;;;;5.00;4.50;;;23.50;1.00;;;;;;5073037;28;20450;-82
2021/08/22 00:20:24;;;;;;;2.83;2.40;;;23.50;1.00;;;;;;5077334;28;20454;-82
2021/08/22 00:22:52;;;;;;;2.10;1.80;;;23.30;1.00;;;;;;5075616;28;20465;-80
2021/08/22 00:25:21;;;;;;;3.30;1.80;;;23.20;1.00;;;;;;5090571;28;21312;-80
2021/08/22 00:27:49;;;;;;;2.30;1.60;;;23.10;1.00;;;;;;5088124;28;20473;-81
2021/08/22 00:30:17;;;;;;;4.37;1.83;;;23.00;1.00;;;;;;5070749;28;20999;-80
2021/08/22 00:32:45;;;;;;;5.50;1.83;;;23.00;1.00;;;;;;5094912;28;20454;-80
2021/08/22 00:35:15;;;;;;;1.40;1.20;;;22.80;1.00;;;;;;5093901;28;20461;-79
2021/08/22 00:37:44;;;;;;;1.20;1.10;;;22.80;1.00;;;;;;5092629;28;20438;-81
2021/08/22 00:40:12;;;;;;;2.83;1.17;;;22.70;1.00;;;;;;5070060;28;20456;-80
2021/08/22 00:42:41;;;;;;;1.50;1.23;;;22.70;1.00;;;;;;5092251;28;20460;-80
2021/08/22 00:45:10;;;;;;;1.87;0.90;;;22.60;1.00;;;;;;5091295;28;21069;-80
2021/08/22 00:47:40;;;;;;;1.30;1.00;;;22.60;1.00;;;;;;5087043;28;20460;-80
2021/08/22 00:50:11;;;;;;;3.03;1.10;;;22.50;1.00;;;;;;5088951;28;20453;-80
2021/08/22 00:52:40;;;;;;;1.27;1.17;;;22.50;1.00;;;;;;5075743;28;20450;-80
2021/08/22 00:55:10;;;;;;;1.87;1.47;;;22.50;1.00;;;;;;5072286;28;20829;-79
2021/08/22 00:57:38;;;;;;;2.13;1.20;;;22.40;1.00;;;;;;5089463;28;20509;-80
2021/08/22 01:00:08;;;;;;;1.83;1.20;;;22.40;1.00;;;;;;5087468;28;20480;-80
2021/08/22 01:02:43;;;;;;;2.40;1.50;;;22.30;99.90;;;;;;5091619;28;21127;-80
2021/08/22 01:05:19;;;;;;;2.20;1.10;;;22.30;99.90;;;;;;5091719;28;20517;-81
2021/08/22 01:07:56;;;;;;;1.63;1.53;;;22.30;99.90;;;;;;5092803;28;20443;-80
2021/08/22 01:10:26;;;;;;;2.70;1.20;;;22.30;99.90;;;;;;5089871;28;20948;-81
2021/08/22 01:13:04;;;;;;;1.63;1.30;;;22.20;99.90;;;;;;5089302;28;20472;-79
2021/08/22 01:15:36;;;;;;;1.77;1.53;;;22.20;99.90;;;;;;5074846;28;20462;-81
2021/08/22 01:18:06;;;;;;;3.10;1.60;;;22.20;99.90;;;;;;5091274;28;20482;-82
2021/08/22 01:20:39;;;;;;;2.10;1.90;;;22.20;99.90;;;;;;5091805;28;20959;-80
2021/08/22 01:23:10;;;;;;;3.30;1.70;;;22.10;99.90;;;;;;5092663;28;20476;-81
2021/08/22 01:25:41;;;;;;;2.07;1.90;;;21.90;99.90;;;;;;5092587;28;20515;-80
2021/08/22 01:28:10;;;;;;;1.67;1.47;;;22.00;99.90;;;;;;5088897;28;20759;-80
2021/08/22 01:30:42;;;;;;;1.80;1.50;;;22.10;99.90;;;;;;5090030;28;20448;-80
2021/08/22 01:33:14;;;;;;;2.20;1.30;;;21.90;99.90;;;;;;5091094;28;20527;-81
2021/08/22 01:35:43;;;;;;;3.03;1.40;;;21.90;1.00;;;;;;5073728;28;20451;-80
2021/08/22 01:38:12;;;;;;;1.30;1.20;;;21.90;99.90;;;;;;5083149;28;20460;-80
2021/08/22 01:40:41;;;;;;;4.07;1.90;;;21.90;99.90;;;;;;5070991;28;20456;-80
2021/08/22 01:43:12;;;;;;;3.20;1.40;;;21.80;99.90;;;;;;5090095;28;21129;-79
2021/08/22 01:45:42;;;;;;;1.23;1.13;;;21.80;99.90;;;;;;5084519;28;20859;-81
2021/08/22 01:48:14;;;;;;;2.70;1.40;;;21.90;99.90;;;;;;5070395;28;20456;-79
2021/08/22 01:50:43;;;;;;;1.70;1.60;;;21.90;99.90;;;;;;5085298;28;20446;-80
2021/08/22 01:53:12;;;;;;;1.93;1.60;;;21.90;99.90;;;;;;5082956;28;21450;-81
2021/08/22 01:55:41;;;;;;;3.80;1.50;;;22.00;99.90;;;;;;5086283;28;20453;-82
2021/08/22 01:58:09;;;;;;;1.60;1.50;;;22.00;99.90;;;;;;5092087;28;20448;-82
2021/08/22 02:00:38;;;;;;;1.87;1.73;;;21.90;99.90;;;;;;5088892;28;20471;-82
2021/08/22 02:03:10;;;;;;;1.97;1.77;;;21.80;99.90;;;;;;5090727;28;20870;-80
2021/08/22 02:05:40;;;;;;;2.33;1.50;;;21.90;99.90;;;;;;5090812;28;20453;-79
2021/08/22 02:08:15;;;;;;;1.83;1.53;;;21.90;99.90;;;;;;5073071;28;20449;-79
2021/08/22 02:10:48;;;;;;;2.33;1.70;;;21.80;99.90;;;;;;5060699;28;20528;-79
2021/08/22 02:13:19;;;;;;;1.83;1.50;;;21.70;99.90;;;;;;5089955;28;20556;-80
2021/08/22 02:15:49;;;;;;;2.40;1.90;;;21.70;99.90;;;;;;5086916;28;20470;-80
2021/08/22 02:18:17;;;;;;;2.20;1.63;;;21.80;99.90;;;;;;5091750;28;20737;-80
2021/08/22 02:20:47;;;;;;;2.47;1.93;;;21.80;99.90;;;;;;5088261;28;20493;-80
2021/08/22 02:23:17;;;;;;;1.63;1.53;;;21.70;99.90;;;;;;5090387;28;20468;-79
2021/08/22 02:25:45;;;;;;;4.70;1.93;;;21.80;99.90;;;;;;5071070;28;20529;-78
2021/08/22 02:28:15;;;;;;;2.40;1.87;;;21.90;99.90;;;;;;5088671;28;20502;-80
2021/08/22 02:30:43;;;;;;;2.30;1.67;;;21.90;99.90;;;;;;5086852;28;20486;-80
2021/08/22 02:33:11;;;;;;;1.60;1.50;;;22.00;99.90;;;;;;5088349;28;20472;-80
2021/08/22 02:35:40;;;;;;;1.87;1.63;;;21.90;99.90;;;;;;5088434;28;20478;-81
2021/08/22 02:38:09;;;;;;;1.50;1.30;;;21.90;99.90;;;;;;5088612;28;20493;-80
2021/08/22 02:40:37;;;;;;;2.03;1.57;;;21.70;1.00;;;;;;5069524;28;20467;-80
2021/08/22 02:43:06;;;;;;;2.40;1.60;;;21.70;1.00;;;;;;5089213;28;20465;-81
2021/08/22 02:45:34;;;;;;;1.83;1.50;;;21.70;99.90;;;;;;5070001;28;20475;-81
2021/08/22 02:48:02;;;;;;;1.70;1.50;;;21.60;1.00;;;;;;5090301;28;20441;-80
2021/08/22 02:50:30;;;;;;;2.13;1.70;;;21.40;26.00;;;;;;5087885;28;20478;-80
2021/08/22 02:52:58;;;;;;;1.90;1.50;;;21.40;99.90;;;;;;5089267;28;20545;-79
2021/08/22 02:55:28;;;;;;;2.03;1.50;;;21.40;99.90;;;;;;5087876;28;20844;-77
2021/08/22 02:57:56;;;;;;;1.63;1.53;;;21.40;1.00;;;;;;5075815;28;20568;-81
2021/08/22 03:00:25;;;;;;;2.83;1.53;;;21.40;1.00;;;;;;5085728;28;20464;-81
2021/08/22 03:02:53;;;;;;;1.60;1.50;;;21.40;67.90;;;;;;5076161;28;21014;-80
2021/08/22 03:05:22;;;;;;;2.03;1.83;;;21.50;1.00;;;;;;5089068;28;20445;-80
2021/08/22 03:07:50;;;;;;;1.60;1.40;;;21.60;1.00;;;;;;5088741;28;20467;-80
2021/08/22 03:10:18;;;;;;;2.07;1.63;;;21.60;1.00;;;;;;5088516;28;20484;-80
2021/08/22 03:12:48;;;;;;;2.03;1.40;;;21.60;1.00;;;;;;5088691;28;20475;-80
2021/08/22 03:15:17;;;;;;;1.73;1.50;;;21.60;99.90;;;;;;5073421;28;20462;-82
2021/08/22 03:17:45;;;;;;;1.90;1.50;;;21.60;1.00;;;;;;5073313;28;20482;-82
2021/08/22 03:20:13;;;;;;;1.73;1.63;;;21.60;99.90;;;;;;5091351;28;20886;-81
2021/08/22 03:22:42;;;;;;;2.07;1.87;;;21.70;99.90;;;;;;5093992;28;20887;-81
2021/08/22 03:25:12;;;;;;;3.27;1.57;;;21.70;99.90;;;;;;5095876;28;20495;-81
2021/08/22 03:27:40;;;;;;;2.10;1.57;;;21.50;99.90;;;;;;5078182;28;20433;-81
2021/08/22 03:30:11;;;;;;;1.83;1.47;;;21.30;1.00;;;;;;5090437;28;20472;-80
2021/08/22 03:32:39;;;;;;;1.40;1.30;;;21.30;68.90;;;;;;5079137;28;20568;-80
2021/08/22 03:35:08;;;;;;;1.93;1.73;;;21.20;1.00;;;;;;5085930;28;20461;-80
2021/08/22 03:37:36;;;;;;;4.13;1.50;;;21.30;1.00;;;;;;5093027;28;20453;-81
2021/08/22 03:40:05;;;;;;;1.90;1.43;;;21.20;1.00;;;;;;5090851;28;20496;-80
2021/08/22 03:42:33;;;;;;;2.20;1.40;;;21.30;1.00;;;;;;5071090;28;20452;-81
2021/08/22 03:45:01;;;;;;;1.70;1.50;;;21.30;1.00;;;;;;5093050;28;20488;-82
2021/08/22 03:47:31;;;;;;;1.50;1.40;;;21.30;1.00;;;;;;5075602;28;20450;-81
2021/08/22 03:49:59;;;;;;;1.70;1.60;;;21.40;1.00;;;;;;5092572;28;20466;-80
2021/08/22 03:52:27;;;;;;;2.10;1.67;;;21.40;1.00;;;;;;5091341;28;20487;-80
2021/08/22 03:54:55;;;;;;;2.87;1.50;;;21.20;1.00;;;;;;5092308;28;20441;-82
2021/08/22 03:57:23;;;;;;;2.40;1.40;;;21.10;99.90;;;;;;5092771;28;20976;-81
2021/08/22 03:59:51;;;;;;;3.33;1.80;;;21.10;99.90;;;;;;5067372;28;20458;-80
2021/08/22 04:02:21;;;;;;;1.97;1.50;;;21.30;1.00;;;;;;5072579;28;20474;-79
2021/08/22 04:04:51;;;;;;;2.23;1.93;;;21.40;1.00;;;;;;5082235;28;20459;-80
2021/08/22 04:07:19;;;;;;;2.07;1.87;;;21.50;1.00;;;;;;5093328;28;20446;-81
2021/08/22 04:09:47;;;;;;;2.30;1.50;;;21.40;1.00;;;;;;5092735;28;20951;-81
2021/08/22 04:12:15;;;;;;;1.83;1.60;;;21.50;1.00;;;;;;5073423;28;20458;-81
2021/08/22 04:14:44;;;;;;;1.97;1.87;;;21.40;1.00;;;;;;5093440;28;20484;-82
2021/08/22 04:17:12;;;;;;;2.50;1.60;;;21.40;1.00;;;;;;5073806;28;20473;-81
2021/08/22 04:19:41;;;;;;;2.73;2.03;;;21.40;1.00;;;;;;5093030;28;20457;-82
2021/08/22 04:22:12;;;;;;;1.93;1.83;;;21.40;1.00;;;;;;5093302;28;20511;-82
2021/08/22 04:24:40;;;;;;;1.73;1.63;;;21.40;1.00;;;;;;5092283;28;21053;-81
2021/08/22 04:27:08;;;;;;;2.87;2.20;;;21.30;26.00;;;;;;5090739;28;20453;-81
2021/08/22 04:29:40;;;;;;;2.53;2.03;;;21.20;99.90;;;;;;5092731;28;20460;-81
2021/08/22 04:32:09;;;;;;;2.20;2.03;;;21.00;1.00;;;;;;5092434;28;20509;-80
2021/08/22 04:34:38;;;;;;;2.70;2.43;;;21.00;1.00;;;;;;5086730;28;20465;-81
2021/08/22 04:37:06;;;;;;;2.73;2.53;;;20.90;99.90;;;;;;5074110;28;20947;-81
2021/08/22 04:39:35;;;;;;;2.30;2.10;;;20.90;99.90;;;;;;5093866;28;20801;-81
2021/08/22 04:42:04;;;;;;;2.93;2.30;;;20.90;99.90;;;;;;5071399;28;20811;-82
2021/08/22 04:44:32;;;;;;;3.33;3.03;;;21.00;94.10;;;;;;5082549;28;20480;-79
2021/08/22 04:47:00;;;;;;;3.90;2.90;;;21.10;1.00;;;;;;5086491;28;20453;-79
2021/08/22 04:49:28;;;;;;;2.60;2.30;;;21.20;1.00;;;;;;5072387;28;20433;-79
2021/08/22 04:51:56;;;;;;;2.37;2.17;;;21.40;99.90;;;;;;5089459;28;20478;-78
2021/08/22 04:54:25;;;;;;;2.50;2.03;;;21.50;99.90;;;;;;5088153;28;20460;-79
2021/08/22 04:56:55;;;;;;;2.00;1.90;;;21.50;99.90;;;;;;5085838;28;20465;-79
2021/08/22 04:59:24;;;;;;;2.40;2.17;;;21.60;99.90;;;;;;5086245;28;20519;-80
2021/08/22 05:01:52;;;;;;;2.10;2.00;;;21.50;47.90;;;;;;5090373;28;20445;-78
2021/08/22 05:04:25;;;;;;;2.57;1.83;;;21.50;99.90;;;;;;5091054;28;20469;-79
2021/08/22 05:06:53;;;;;;;3.40;2.03;;;21.50;99.90;;;;;;5069513;28;20451;-78
2021/08/22 05:09:21;;;;;;;2.53;2.23;;;21.50;99.90;;;;;;5089354;28;20456;-77
2021/08/22 05:11:49;;;;;;;3.40;3.00;;;21.50;99.90;;;;;;5068238;28;20478;-77
2021/08/22 05:14:19;;;;;;;2.90;2.70;;;21.50;1.00;;;;;;5090537;28;20467;-78
2021/08/22 05:16:47;;;;;;;2.27;2.00;;;21.50;1.00;;;;;;5089293;28;20454;-81
2021/08/22 05:19:15;;;;;;;2.50;2.30;;;21.50;11.90;;;;;;5069711;28;20482;-79
2021/08/22 05:21:43;;;;;;;2.33;2.13;;;21.50;1.00;;;;;;5089663;28;21018;-77
2021/08/22 05:24:11;;;;;;;2.00;1.80;;;21.40;99.90;;;;;;5090230;28;20602;-79
2021/08/22 05:26:39;;;;;;;2.70;2.27;;;21.40;1.00;;;;;;5065931;28;20450;-78
2021/08/22 05:29:07;;;;;;;2.10;2.00;;;21.40;1.00;;;;;;5068804;28;20463;-78
2021/08/22 05:31:37;;;;;;;2.40;1.90;;;21.30;1.00;;;;;;5087780;28;20988;-78
2021/08/22 05:34:05;;;;;;;2.40;2.10;;;21.30;99.90;;;;;;5077248;28;20564;-79
2021/08/22 05:36:37;;;;;;;2.20;2.00;;;21.30;97.60;;;;;;5087895;28;20450;-78
2021/08/22 05:39:06;;;;;;;4.30;2.03;;;21.30;99.90;;;;;;5088953;28;20945;-77
2021/08/22 05:41:34;;;;;;;3.43;2.43;;;21.20;99.90;;;;;;5087539;28;21006;-76
2021/08/22 05:44:02;;;;;;;2.57;2.37;;;21.20;99.90;;;;;;5089600;28;20450;-79
2021/08/22 05:46:32;;;;;;;2.57;2.20;;;21.20;99.90;;;;;;5089475;28;20450;-79
2021/08/22 05:49:03;;;;;;;2.67;2.20;;;21.20;99.90;;;;;;5088876;28;20454;-78
2021/08/22 05:51:31;;;;;;;3.83;2.03;;;21.30;1.00;;;;;;5086839;28;20471;-78
2021/08/22 05:53:59;;;;;;;3.00;2.80;;;21.30;1.00;;;;;;5091835;28;20465;-77
2021/08/22 05:56:27;;;;;;;2.50;2.30;;;21.30;99.90;;;;;;5092133;28;20446;-77
2021/08/22 05:58:55;;;;;;;2.90;2.70;;;21.40;99.90;;;;;;5087216;28;20938;-78
2021/08/22 06:01:23;;;;;;;2.87;2.13;;;21.40;99.90;;;;;;5069684;28;20896;-69
2021/08/22 06:03:51;;;;;;;2.43;2.00;;;21.50;99.90;;;;;;5086515;28;21238;-79
2021/08/22 06:06:21;;;;;;;2.37;2.17;;;21.50;99.90;;;;;;5084260;28;20455;-78
2021/08/22 06:08:49;;;;;;;2.90;2.70;;;21.50;99.90;;;;;;5086504;28;20451;-79
2021/08/22 06:11:17;;;;;;;3.83;2.47;;;21.50;1.00;;;;;;5089139;28;20474;-78
2021/08/22 06:13:45;;;;;;;2.57;2.37;;;21.50;1.00;;;;;;5089100;28;20511;-79
2021/08/22 06:16:14;;;;;;;3.07;2.60;;;21.40;1.00;;;;;;5085407;28;20524;-77
2021/08/22 06:18:42;;;;;;;3.30;2.60;;;21.40;99.90;;;;;;5071725;28;20458;-80
2021/08/22 06:21:10;;;;;;;2.70;2.50;;;21.40;99.90;;;;;;5087857;28;20450;-80
2021/08/22 06:23:39;;;;;;;2.47;2.27;;;21.40;99.90;;;;;;5089355;28;20480;-79
2021/08/22 06:26:07;;;;;;;4.00;2.60;;;21.50;99.90;;;;;;5090142;28;20489;-80
2021/08/22 06:28:35;;;;;;;3.10;2.60;;;21.50;29.50;;;;;;5085467;28;20481;-80
2021/08/22 06:31:04;;;;;;;3.93;2.80;;;21.50;1.00;;;;;;5070963;28;20450;-81
2021/08/22 06:33:32;;;;;;;3.60;3.30;;;21.60;1.00;;;;;;5088166;28;20475;-79
2021/08/22 06:36:01;;;;;;;3.97;3.13;;;21.60;1.00;;;;;;5088597;28;20445;-80
2021/08/22 06:38:30;;;;;;;20.63;5.00;;;21.70;1.00;;;;;;5088218;28;20828;-81
2021/08/22 06:40:59;;;;;;;4.60;2.97;;;21.70;99.90;;;;;;5084468;28;20451;-78
2021/08/22 06:43:28;;;;;;;3.27;3.00;;;21.80;99.90;;;;;;5081707;28;20527;-80
2021/08/22 06:45:56;;;;;;;3.00;2.80;;;21.80;99.90;;;;;;5088855;28;20447;-77
2021/08/22 06:48:25;;;;;;;4.20;3.10;;;21.90;1.00;;;;;;5088860;28;20481;-79
2021/08/22 06:50:53;;;;;;;3.00;2.80;;;21.90;99.90;;;;;;5083814;28;20452;-76
2021/08/22 06:53:21;;;;;;;3.33;2.80;;;22.00;1.00;;;;;;5087162;28;20557;-78
2021/08/22 06:55:50;;;;;;;2.80;2.60;;;22.00;1.00;;;;;;5070799;28;20509;-80
2021/08/22 06:58:21;;;;;;;4.30;3.47;;;22.00;1.00;;;;;;5069171;28;20436;-78
2021/08/22 07:00:49;;;;;;;3.80;3.40;;;22.00;99.90;;;;;;5082182;28;20537;-78
2021/08/22 07:03:18;;;;;;;3.53;3.23;;;22.00;99.90;;;;;;5081625;28;20554;-80
2021/08/22 07:05:46;;;;;;;3.23;3.03;;;22.00;99.90;;;;;;5088214;28;20464;-80
2021/08/22 07:08:14;;;;;;;2.83;2.63;;;22.00;99.90;;;;;;5072811;28;20484;-79
2021/08/22 07:10:42;;;;;;;3.87;2.80;;;21.90;99.90;;;;;;5087889;28;20893;-78
2021/08/22 07:13:10;;;;;;;2.93;2.63;;;21.90;99.90;;;;;;5086639;28;20533;-77
2021/08/22 07:15:40;;;;;;;5.07;2.60;;;21.90;1.00;;;;;;5087071;28;20531;-78
2021/08/22 07:18:08;;;;;;;3.07;2.50;;;21.90;1.00;;;;;;5080430;28;20446;-80
2021/08/22 07:20:36;;;;;;;4.47;3.37;;;22.00;1.00;;;;;;5086393;28;20545;-79
2021/08/22 07:23:05;;;;;;;3.13;2.83;;;22.00;99.90;;;;;;5086364;28;20472;-79
2021/08/22 07:25:33;;;;;;;2.87;2.67;;;22.00;99.90;;;;;;5080587;28;20509;-80
2021/08/22 07:28:01;;;;;;;3.50;2.77;;;22.00;99.90;;;;;;5080880;28;20461;-79
2021/08/22 07:30:29;;;;;;;3.17;2.57;;;22.00;99.90;;;;;;5082469;28;20460;-79
2021/08/22 07:33:01;;;;;;;3.10;2.80;;;21.90;1.00;;;;;;5081996;28;20493;-79
2021/08/22 07:35:29;;;;;;;3.77;3.17;;;21.90;1.00;;;;;;5083665;28;20835;-79
2021/08/22 07:37:57;;;;;;;5.30;3.60;;;22.00;1.00;;;;;;5066373;28;20453;-80
2021/08/22 07:40:25;;;;;;;2.93;2.67;;;22.00;1.00;;;;;;5082102;28;20459;-81
2021/08/22 07:42:53;;;;;;;3.37;3.10;;;22.00;1.00;;;;;;5084445;28;20504;-81
2021/08/22 07:45:22;;;;;;;3.17;2.87;;;22.10;1.00;;;;;;5086912;28;21223;-79
2021/08/22 07:47:50;;;;;;;3.07;2.80;;;22.10;1.00;;;;;;5067757;28;22382;-80
2021/08/22 07:50:20;;;;;;;3.07;2.77;;;22.10;1.00;;;;;;5085418;28;20450;-78
2021/08/22 07:52:48;;;;;;;2.80;2.60;;;22.20;1.00;;;;;;5061209;28;20865;-78
2021/08/22 07:55:17;;;;;;;3.03;2.80;;;22.20;99.90;;;;;;5085423;28;20453;-77
2021/08/22 07:57:45;;;;;;;5.00;3.10;;;22.30;99.90;;;;;;5084248;28;20964;-79
2021/08/22 08:00:15;;;;;;;6.47;2.77;;;22.30;99.90;;;;;;5066109;28;20806;-79
2021/08/22 08:02:43;;;;;;;3.17;2.87;;;22.20;99.90;;;;;;5085269;28;20492;-79
2021/08/22 08:05:12;;;;;;;3.63;2.93;;;22.10;99.90;;;;;;5067974;28;20490;-79
2021/08/22 08:07:42;;;;;;;4.60;2.90;;;22.20;99.90;;;;;;5085455;28;20494;-75
2021/08/22 08:10:13;;;;;;;3.27;2.57;;;22.30;99.90;;;;;;5068520;28;20472;-76
2021/08/22 08:12:41;;;;;;;2.70;2.50;;;22.30;99.90;;;;;;5087652;28;20490;-78
2021/08/22 08:15:10;;;;;;;3.87;3.20;;;22.30;99.90;;;;;;5065229;28;20453;-79
2021/08/22 08:17:39;;;;;;;4.03;2.50;;;22.30;1.00;;;;;;5087086;28;20949;-79
2021/08/22 08:20:07;;;;;;;4.30;3.17;;;22.30;1.00;;;;;;5069431;28;20442;-83
2021/08/22 08:22:36;;;;;;;4.90;3.27;;;22.40;1.00;;;;;;5073450;28;20491;-80
2021/08/22 08:25:06;;;;;;;3.13;2.83;;;22.40;1.00;;;;;;5091802;28;21034;-79
2021/08/22 08:27:34;;;;;;;3.27;2.97;;;22.40;1.00;;;;;;5087325;28;22826;-80
2021/08/22 08:30:03;;;;;;;3.40;2.73;;;22.50;1.00;;;;;;5091785;28;20442;-80
2021/08/22 08:32:31;;;;;;;3.70;2.83;;;22.50;1.00;;;;;;5071440;28;20556;-80
2021/08/22 08:34:59;;;;;;;3.40;3.10;;;22.50;99.90;;;;;;5071617;28;20454;-81
2021/08/22 08:37:28;;;;;;;2.87;2.57;;;22.60;1.00;;;;;;5089621;28;20449;-80
2021/08/22 08:39:56;;;;;;;2.27;2.07;;;22.60;1.00;;;;;;5077814;28;20450;-78
2021/08/22 08:42:26;;;;;;;4.80;2.67;;;22.70;99.90;;;;;;5093754;28;20472;-81
2021/08/22 08:44:55;;;;;;;3.20;2.93;;;22.70;99.90;;;;;;5091719;28;20538;-80
2021/08/22 08:47:23;;;;;;;2.93;2.73;;;22.70;99.90;;;;;;5074017;28;20458;-81
2021/08/22 08:49:58;;;;;;;5.40;3.40;;;22.70;1.00;;;;;;5092541;28;20493;-79
2021/08/22 08:52:31;;;;;;;4.00;2.50;;;22.70;99.90;;;;;;5091564;28;20991;-81
2021/08/22 08:55:02;;;;;;;3.43;2.37;;;22.80;1.00;;;;;;5094163;28;20537;-82
2021/08/22 08:57:31;;;;;;;2.60;2.40;;;22.70;99.90;;;;;;5092754;28;20450;-81
2021/08/22 09:00:00;;;;;;;4.07;2.63;;;22.70;1.00;;;;;;5093092;28;20446;-80
2021/08/22 09:02:28;;;;;;;4.50;3.13;;;22.80;99.90;;;;;;5089657;28;20857;-78
2021/08/22 09:05:11;;;;;;;3.10;2.90;;;22.80;99.90;;;;;;5087986;28;20450;-80
2021/08/22 09:08:16;;;;;;;2.80;2.60;;;23.00;99.90;;;;;;5089595;28;20468;-81
2021/08/22 09:11:18;;;;;;;3.20;2.90;;;23.10;99.90;;;;;;5087301;28;20465;-81
2021/08/22 09:14:32;;;;;;;3.67;2.23;;;23.00;99.90;;;;;;5088190;28;20534;-82
2021/08/22 09:17:53;;;;;;;2.90;2.70;;;23.10;99.90;;;;;;5085617;28;20453;-83
2021/08/22 09:23:48;;;;;;;2.87;2.60;;;23.00;99.90;;;;;;5077233;27;1284415;-83
2021/08/22 09:26:54;;;;;;;2.90;2.63;;;23.00;99.90;;;;;;5090449;28;20879;-83
2021/08/22 09:29:55;;;;;;;2.90;2.70;;;22.90;99.90;;;;;;5088534;28;20442;-83
2021/08/22 09:33:12;;;;;;;3.60;2.77;;;22.80;99.90;;;;;;5073168;28;20432;-81
2021/08/22 09:36:20;;;;;;;3.90;3.10;;;22.90;99.90;;;;;;5092324;28;20460;-83
2021/08/22 09:39:25;;;;;;;3.33;3.03;;;23.00;99.90;;;;;;5091012;28;20948;-81
2021/08/22 09:42:30;;;;;;;3.67;2.77;;;22.90;99.90;;;;;;5090144;28;20469;-83
2021/08/22 09:45:50;;;;;;;3.33;3.03;;;22.90;99.90;;;;;;5091181;28;20441;-83
2021/08/22 09:49:05;;;;;;;3.57;3.30;;;23.00;99.90;;;;;;5091371;28;20450;-83
2021/08/22 09:52:10;;;;;;;4.63;2.87;;;22.80;64.50;;;;;;5091799;28;20442;-83
2021/08/22 09:55:27;;;;;;;4.80;2.80;;;22.70;99.90;;;;;;5072769;28;20473;-82
2021/08/22 09:58:32;;;;;;;4.10;3.20;;;22.80;99.90;;;;;;5072547;28;20862;-83
2021/08/22 10:01:43;;;;;;;3.17;2.70;;;22.80;99.90;;;;;;5089999;28;20426;-82
2021/08/22 10:04:42;;;;;;;3.30;2.97;;;22.80;99.90;;;;;;5090872;28;20469;-83
2021/08/22 10:07:32;;;;;;;3.30;2.37;;;22.90;99.90;;;;;;5091045;28;20945;-83
2021/08/22 10:10:02;;;;;;;3.37;2.90;;;23.00;99.90;;;;;;5090333;28;20445;-83
2021/08/22 10:12:35;;;;;;;2.90;2.57;;;23.00;49.40;;;;;;5091627;28;20541;-83
2021/08/22 10:15:04;;;;;;;3.43;2.93;;;23.00;99.90;;;;;;5091147;28;20444;-83
2021/08/22 10:17:33;;;;;;;3.30;3.10;;;22.90;86.20;;;;;;5099754;28;20464;-81
2021/08/22 10:20:01;;;;;;;2.80;2.60;;;23.00;99.90;;;;;;5110251;28;20473;-83
2021/08/22 10:22:37;;;;;;;3.60;3.10;;;23.00;67.60;;;;;;5110510;28;20479;-83
2021/08/22 10:25:06;;;;;;;3.30;3.00;;;23.00;61.80;;;;;;5105191;28;20510;-83
2021/08/22 10:27:48;;;;;;;3.37;3.07;;;22.90;80.40;;;;;;5089939;28;21001;-84
2021/08/22 10:30:27;;;;;;;3.80;3.07;;;22.90;85.20;;;;;;5090229;28;20446;-83
2021/08/22 10:33:27;;;;;;;3.37;3.07;;;22.90;99.90;;;;;;5088611;28;20446;-83
2021/08/22 10:36:25;;;;;;;3.03;2.83;;;22.90;99.90;;;;;;5076554;28;20500;-83
2021/08/22 10:39:20;;;;;;;4.40;3.00;;;23.00;1.00;;;;;;5075130;28;20439;-82
2021/08/22 10:41:48;;;;;;;3.20;3.00;;;23.00;52.80;;;;;;5076345;28;20466;-83
2021/08/22 10:44:41;;;;;;;4.57;3.70;;;22.90;20.60;;;;;;5078867;28;20884;-82
2021/08/22 10:47:10;;;;;;;3.57;2.93;;;22.80;45.10;;;;;;5078844;28;20443;-83
2021/08/22 10:50:00;;;;;;;5.47;4.37;;;22.80;99.90;;;;;;5074536;28;20894;-83
2021/08/22 10:52:28;;;;;;;7.60;6.17;;;22.90;58.10;;;;;;5073893;28;20492;-82
2021/08/22 10:55:32;;;;;;;6.40;5.17;;;22.80;99.90;;;;;;5073854;28;20482;-83
2021/08/22 10:58:01;;;;;;;4.20;3.80;;;22.90;99.90;;;;;;5073850;28;20507;-83
2021/08/22 11:00:30;;;;;;;5.10;3.77;;;23.00;99.90;;;;;;5073059;28;20453;-82
2021/08/22 11:03:00;;;;;;;4.07;3.70;;;23.00;99.90;;;;;;5073389;28;20471;-83
2021/08/22 11:05:30;;;;;;;4.03;3.20;;;23.10;99.90;;;;;;5073996;28;20536;-83
2021/08/22 11:08:13;;;;;;;4.30;3.00;;;23.10;99.90;;;;;;5073926;28;20443;-83
2021/08/22 11:10:57;;;;;;;3.87;3.40;;;23.20;99.90;;;;;;5073041;28;20445;-83
2021/08/22 11:13:26;;;;;;;2.83;2.63;;;23.20;99.90;;;;;;5074051;28;20531;-83
2021/08/22 11:15:54;;;;;;;4.20;3.80;;;23.20;99.90;;;;;;5077501;28;20460;-83
2021/08/22 11:18:22;;;;;;;3.63;3.37;;;23.20;99.90;;;;;;5075394;28;20445;-83
2021/08/22 11:20:51;;;;;;;3.80;3.20;;;23.20;99.90;;;;;;5091820;28;20450;-83
2021/08/22 11:23:19;;;;;;;3.20;2.90;;;23.30;99.90;;;;;;5075366;28;21222;-82
2021/08/22 11:25:51;;;;;;;3.30;3.00;;;23.30;99.90;;;;;;5095501;28;20541;-83
2021/08/22 11:28:20;;;;;;;4.17;3.77;;;23.30;99.90;;;;;;5095032;28;20834;-83
2021/08/22 11:30:48;;;;;;;4.07;3.77;;;23.30;99.90;;;;;;5093487;28;20945;-83
2021/08/22 11:33:17;;;;;;;3.53;3.23;;;23.30;99.90;;;;;;5087938;28;20894;-82
2021/08/22 11:35:47;;;;;;;4.63;3.50;;;23.30;99.90;;;;;;5075269;28;20508;-82
2021/08/22 11:38:16;;;;;;;3.33;3.07;;;23.30;99.90;;;;;;5075507;28;20480;-82
2021/08/22 11:40:45;;;;;;;2.20;2.00;;;23.30;99.90;;;;;;5068868;28;20485;-83
2021/08/22 11:43:15;;;;;;;1.83;1.67;;;23.20;99.90;;;;;;5073931;28;20655;-83
2021/08/22 11:45:45;;;;;;;1.50;1.40;;;23.20;22.60;;;;;;5073688;28;20709;-83
2021/08/22 11:48:17;;;;;;;1.40;1.30;;;23.20;11.80;;;;;;5074261;28;20469;-83
2021/08/22 11:50:47;;;;;;;1.47;1.33;;;23.10;1.00;;;;;;5074609;28;20446;-83
2021/08/22 11:53:17;;;;;;;1.37;1.27;;;23.00;18.20;;;;;;5074727;28;20450;-83
2021/08/22 11:55:46;;;;;;;1.37;1.27;;;23.00;23.80;;;;;;5074614;28;20447;-83
2021/08/22 11:58:17;;;;;;;1.90;1.13;;;23.00;99.90;;;;;;5073352;28;20455;-82
2021/08/22 12:00:47;;;;;;;1.70;1.30;;;22.90;99.90;;;;;;5073119;28;20479;-83
2021/08/22 12:03:18;;;;;;;1.80;1.40;;;22.90;99.90;;;;;;5073391;28;20466;-82
2021/08/22 12:05:56;;;;;;;1.37;1.23;;;22.80;99.90;;;;;;5075824;28;20473;-83
2021/08/22 12:08:24;;;;;;;1.40;1.30;;;22.80;99.90;;;;;;5073375;28;20481;-83
2021/08/22 12:11:07;;;;;;;1.53;1.40;;;22.80;99.90;;;;;;5072179;28;20450;-83
2021/08/22 12:13:37;;;;;;;1.50;1.40;;;22.70;99.90;;;;;;5074054;28;20470;-83
2021/08/22 12:16:24;;;;;;;1.40;1.30;;;22.70;1.00;;;;;;5054841;28;20442;-83
2021/08/22 12:18:53;;;;;;;1.33;1.20;;;22.70;1.00;;;;;;5075621;28;20438;-82
2021/08/22 12:21:23;;;;;;;1.77;1.50;;;22.60;1.00;;;;;;5073961;28;20453;-83
2021/08/22 12:23:53;;;;;;;2.20;1.67;;;22.60;1.00;;;;;;5076407;28;20554;-82
2021/08/22 12:26:24;;;;;;;1.93;1.20;;;22.60;99.90;;;;;;5094694;28;20444;-82
2021/08/22 12:28:55;;;;;;;1.23;1.23;;;22.50;1.00;;;;;;5095427;28;20445;-83
2021/08/22 12:31:32;;;;;;;1.20;1.10;;;22.60;1.00;;;;;;5096059;28;20452;-83
2021/08/22 12:34:03;;;;;;;1.53;1.00;;;22.50;99.90;;;;;;5094579;28;20492;-83
2021/08/22 12:36:35;;;;;;;1.00;0.90;;;22.50;99.90;;;;;;5078625;28;20992;-82
2021/08/22 12:39:05;;;;;;;1.20;1.10;;;22.50;99.90;;;;;;5093876;28;20433;-82
2021/08/22 12:41:42;;;;;;;1.37;1.20;;;22.50;1.00;;;;;;5091364;28;20869;-82
2021/08/22 12:44:15;;;;;;;1.50;1.17;;;22.40;99.90;;;;;;5094390;28;20468;-83
2021/08/22 12:46:46;;;;;;;1.27;1.10;;;22.40;99.90;;;;;;5093883;28;20446;-82
2021/08/22 12:49:14;;;;;;;2.00;1.90;;;22.30;99.90;;;;;;5092489;28;20517;-82
2021/08/22 12:51:48;;;;;;;1.83;1.73;;;22.30;1.00;;;;;;5092837;28;20437;-83
2021/08/22 12:54:16;;;;;;;4.30;3.90;;;22.30;99.90;;;;;;5093064;28;20487;-83
2021/08/22 12:56:45;;;;;;;1.40;1.30;;;22.30;99.90;;;;;;5093160;28;20448;-83
2021/08/22 12:59:15;;;;;;;1.73;1.10;;;22.30;99.90;;;;;;5091236;28;20445;-83
2021/08/22 13:01:44;;;;;;;1.20;1.10;;;22.30;99.90;;;;;;5075116;28;20536;-83
2021/08/22 13:04:13;;;;;;;1.20;1.10;;;22.30;1.00;;;;;;5091941;28;20464;-83
2021/08/22 13:06:46;;;;;;;1.10;0.90;;;22.30;1.00;;;;;;5070114;28;20452;-83
2021/08/22 13:09:14;;;;;;;1.27;1.17;;;22.20;1.00;;;;;;5070960;28;20438;-82
2021/08/22 13:11:42;;;;;;;1.27;0.90;;;22.30;1.00;;;;;;5072346;28;20460;-82
2021/08/22 13:14:11;;;;;;;1.10;1.00;;;22.20;1.00;;;;;;5071685;28;20519;-83
2021/08/22 13:16:41;;;;;;;2.60;1.10;;;22.30;1.00;;;;;;5072234;28;20453;-83
2021/08/22 13:19:09;;;;;;;1.10;1.00;;;22.30;1.00;;;;;;5071551;28;20489;-83